sensor_id;sensor_type;location;lat;lon;timestamp;temperature;humidity
22430;DHT22;11382;48.086;11.632;2023-02-01T00:00:39;4.00;99.90
22430;DHT22;11382;48.086;11.632;2023-02-01T00:03:07;4.00;99.90
22430;DHT22;11382;48.086;11.632;2023-02-01T00:05:36;4.00;99.90
22430;DHT22;11382;48.086;11.632;2023-02-01T00:08:04;3.90;99.90
22430;DHT22;11382;48.086;11.632;2023-02-01T00:10:32;3.90;99.90
22430;DHT22;11382;48.086;11.632;2023-02-01T00:13:00;4.00;99.90
22430;DHT22;11382;48.086;11.632;2023-02-01T00:15:28;4.00;99.90
22430;DHT22;11382;48.086;11.632;2023-02-01T00:17:56;4.00;99.90
22430;DHT22;11382;48.086;11.632;2023-02-01T00:20:23;4.00;99.90
22430;DHT22;11382;48.086;11.632;2023-02-01T00:22:53;3.90;99.90
22430;DHT22;11382;48.086;11.632;2023-02-01T00:25:21;4.00;99.90
22430;DHT22;11382;48.086;11.632;2023-02-01T00:27:49;4.00;99.90
22430;DHT22;11382;48.086;11.632;2023-02-01T00:30:17;4.10;99.90
22430;DHT22;11382;48.086;11.632;2023-02-01T00:32:46;4.10;99.90
22430;DHT22;11382;48.086;11.632;2023-02-01T00:35:14;4.10;99.90
22430;DHT22;11382;48.086;11.632;2023-02-01T00:37:42;4.10;99.90
22430;DHT22;11382;48.086;11.632;2023-02-01T00:40:12;4.10;99.90
22430;DHT22;11382;48.086;11.632;2023-02-01T00:42:40;4.10;99.90
22430;DHT22;11382;48.086;11.632;2023-02-01T00:45:09;4.10;99.90
22430;DHT22;11382;48.086;11.632;2023-02-01T00:47:37;4.10;99.90
22430;DHT22;11382;48.086;11.632;2023-02-01T00:50:05;4.10;99.90
22430;DHT22;11382;48.086;11.632;2023-02-01T00:52:33;4.10;99.90
22430;DHT22;11382;48.086;11.632;2023-02-01T00:55:01;4.10;99.90
22430;DHT22;11382;48.086;11.632;2023-02-01T00:57:31;4.00;99.90
22430;DHT22;11382;48.086;11.632;2023-02-01T00:59:59;4.00;99.90
22430;DHT22;11382;48.086;11.632;2023-02-01T01:02:27;3.90;99.90
22430;DHT22;11382;48.086;11.632;2023-02-01T01:04:55;3.80;99.90
22430;DHT22;11382;48.086;11.632;2023-02-01T01:07:23;3.80;99.90
22430;DHT22;11382;48.086;11.632;2023-02-01T01:09:50;3.70;99.90
22430;DHT22;11382;48.086;11.632;2023-02-01T01:12:18;3.50;99.90
22430;DHT22;11382;48.086;11.632;2023-02-01T01:14:48;3.50;99.90
22430;DHT22;11382;48.086;11.632;2023-02-01T01:17:16;3.40;99.90
22430;DHT22;11382;48.086;11.632;2023-02-01T01:19:43;3.40;99.90
22430;DHT22;11382;48.086;11.632;2023-02-01T01:22:11;3.30;99.90
22430;DHT22;11382;48.086;11.632;2023-02-01T01:24:39;3.20;99.90
22430;DHT22;11382;48.086;11.632;2023-02-01T01:27:07;3.20;99.90
22430;DHT22;11382;48.086;11.632;2023-02-01T01:29:36;3.20;99.90
22430;DHT22;11382;48.086;11.632;2023-02-01T01:32:05;3.30;99.90
22430;DHT22;11382;48.086;11.632;2023-02-01T01:34:33;3.20;99.90
22430;DHT22;11382;48.086;11.632;2023-02-01T01:37:01;3.10;99.90
22430;DHT22;11382;48.086;11.632;2023-02-01T01:39:29;3.20;99.90
22430;DHT22;11382;48.086;11.632;2023-02-01T01:41:57;3.10;99.90
22430;DHT22;11382;48.086;11.632;2023-02-01T01:44:56;3.10;99.90
22430;DHT22;11382;48.086;11.632;2023-02-01T01:47:30;3.10;99.90
22430;DHT22;11382;48.086;11.632;2023-02-01T01:50:00;3.00;99.90
22430;DHT22;11382;48.086;11.632;2023-02-01T01:52:28;3.00;99.90
22430;DHT22;11382;48.086;11.632;2023-02-01T01:54:57;3.00;99.90
22430;DHT22;11382;48.086;11.632;2023-02-01T01:57:28;2.90;99.90
22430;DHT22;11382;48.086;11.632;2023-02-01T02:00:03;3.00;99.90
22430;DHT22;11382;48.086;11.632;2023-02-01T02:02:41;2.90;99.90
22430;DHT22;11382;48.086;11.632;2023-02-01T02:05:11;2.90;99.90
22430;DHT22;11382;48.086;11.632;2023-02-01T02:07:43;2.90;99.90
22430;DHT22;11382;48.086;11.632;2023-02-01T02:10:14;2.70;99.90
22430;DHT22;11382;48.086;11.632;2023-02-01T02:12:44;2.80;99.90
22430;DHT22;11382;48.086;11.632;2023-02-01T02:15:15;2.70;99.90
22430;DHT22;11382;48.086;11.632;2023-02-01T02:17:53;2.80;99.90
22430;DHT22;11382;48.086;11.632;2023-02-01T02:23:52;2.80;99.90
22430;DHT22;11382;48.086;11.632;2023-02-01T02:26:36;2.80;99.90
22430;DHT22;11382;48.086;11.632;2023-02-01T02:32:43;2.90;99.90
22430;DHT22;11382;48.086;11.632;2023-02-01T02:35:23;3.00;99.90
22430;DHT22;11382;48.086;11.632;2023-02-01T02:38:02;3.00;99.90
22430;DHT22;11382;48.086;11.632;2023-02-01T02:40:39;3.00;99.90
22430;DHT22;11382;48.086;11.632;2023-02-01T02:43:11;3.00;99.90
22430;DHT22;11382;48.086;11.632;2023-02-01T02:46:04;3.00;99.90
22430;DHT22;11382;48.086;11.632;2023-02-01T02:48:54;3.10;99.90
22430;DHT22;11382;48.086;11.632;2023-02-01T02:51:30;3.10;99.90
22430;DHT22;11382;48.086;11.632;2023-02-01T02:54:20;3.10;99.90
22430;DHT22;11382;48.086;11.632;2023-02-01T02:57:09;3.10;99.90
22430;DHT22;11382;48.086;11.632;2023-02-01T03:00:00;3.20;99.90
22430;DHT22;11382;48.086;11.632;2023-02-01T03:02:47;3.20;99.90
22430;DHT22;11382;48.086;11.632;2023-02-01T03:05:34;3.20;99.90
22430;DHT22;11382;48.086;11.632;2023-02-01T03:08:08;3.20;99.90
22430;DHT22;11382;48.086;11.632;2023-02-01T03:10:56;3.20;99.90
22430;DHT22;11382;48.086;11.632;2023-02-01T03:13:31;3.30;99.90
22430;DHT22;11382;48.086;11.632;2023-02-01T03:16:03;3.30;99.90
22430;DHT22;11382;48.086;11.632;2023-02-01T03:18:40;3.20;99.90
22430;DHT22;11382;48.086;11.632;2023-02-01T03:21:12;3.20;99.90
22430;DHT22;11382;48.086;11.632;2023-02-01T03:23:44;3.20;99.90
22430;DHT22;11382;48.086;11.632;2023-02-01T03:26:15;3.30;99.90
22430;DHT22;11382;48.086;11.632;2023-02-01T03:28:49;3.30;99.90
22430;DHT22;11382;48.086;11.632;2023-02-01T03:31:20;3.30;99.90
22430;DHT22;11382;48.086;11.632;2023-02-01T03:33:49;3.30;99.90
22430;DHT22;11382;48.086;11.632;2023-02-01T03:36:22;3.30;99.90
22430;DHT22;11382;48.086;11.632;2023-02-01T03:38:59;3.30;99.90
22430;DHT22;11382;48.086;11.632;2023-02-01T03:41:34;3.40;99.90
22430;DHT22;11382;48.086;11.632;2023-02-01T03:44:09;3.40;99.90
22430;DHT22;11382;48.086;11.632;2023-02-01T03:46:44;3.40;99.90
22430;DHT22;11382;48.086;11.632;2023-02-01T03:49:18;3.30;99.90
22430;DHT22;11382;48.086;11.632;2023-02-01T03:51:49;3.40;99.90
22430;DHT22;11382;48.086;11.632;2023-02-01T03:54:20;3.40;99.90
22430;DHT22;11382;48.086;11.632;2023-02-01T03:56:48;3.50;99.90
22430;DHT22;11382;48.086;11.632;2023-02-01T03:59:18;3.50;99.90
22430;DHT22;11382;48.086;11.632;2023-02-01T04:01:46;3.40;99.90
22430;DHT22;11382;48.086;11.632;2023-02-01T04:04:14;3.40;99.90
22430;DHT22;11382;48.086;11.632;2023-02-01T04:06:50;3.40;99.90
22430;DHT22;11382;48.086;11.632;2023-02-01T04:09:20;3.40;99.90
22430;DHT22;11382;48.086;11.632;2023-02-01T04:11:48;3.50;99.90
22430;DHT22;11382;48.086;11.632;2023-02-01T04:14:16;3.50;99.90
22430;DHT22;11382;48.086;11.632;2023-02-01T04:16:44;3.50;99.90
22430;DHT22;11382;48.086;11.632;2023-02-01T04:19:12;3.60;99.90
22430;DHT22;11382;48.086;11.632;2023-02-01T04:21:40;3.50;99.90
22430;DHT22;11382;48.086;11.632;2023-02-01T04:24:08;3.50;99.90
22430;DHT22;11382;48.086;11.632;2023-02-01T04:26:39;3.60;99.90
22430;DHT22;11382;48.086;11.632;2023-02-01T04:29:08;3.60;99.90
22430;DHT22;11382;48.086;11.632;2023-02-01T04:31:36;3.60;99.90
22430;DHT22;11382;48.086;11.632;2023-02-01T04:34:04;3.60;99.90
22430;DHT22;11382;48.086;11.632;2023-02-01T04:36:32;3.60;99.90
22430;DHT22;11382;48.086;11.632;2023-02-01T04:39:00;3.60;99.90
22430;DHT22;11382;48.086;11.632;2023-02-01T04:41:28;3.50;99.90
22430;DHT22;11382;48.086;11.632;2023-02-01T04:43:58;3.60;99.90
22430;DHT22;11382;48.086;11.632;2023-02-01T04:46:26;3.60;99.90
22430;DHT22;11382;48.086;11.632;2023-02-01T04:48:54;3.60;99.90
22430;DHT22;11382;48.086;11.632;2023-02-01T04:51:21;3.60;99.90
22430;DHT22;11382;48.086;11.632;2023-02-01T04:53:49;3.60;99.90
22430;DHT22;11382;48.086;11.632;2023-02-01T04:56:17;3.60;99.90
22430;DHT22;11382;48.086;11.632;2023-02-01T04:58:45;3.60;99.90
22430;DHT22;11382;48.086;11.632;2023-02-01T05:01:14;3.70;99.90
22430;DHT22;11382;48.086;11.632;2023-02-01T05:03:42;3.60;99.90
22430;DHT22;11382;48.086;11.632;2023-02-01T05:06:10;3.60;99.90
22430;DHT22;11382;48.086;11.632;2023-02-01T05:08:38;3.60;99.90
22430;DHT22;11382;48.086;11.632;2023-02-01T05:11:06;3.70;99.90
22430;DHT22;11382;48.086;11.632;2023-02-01T05:13:54;3.70;99.90
22430;DHT22;11382;48.086;11.632;2023-02-01T05:16:22;3.60;99.90
22430;DHT22;11382;48.086;11.632;2023-02-01T05:18:50;3.60;99.90
22430;DHT22;11382;48.086;11.632;2023-02-01T05:21:18;3.60;99.90
22430;DHT22;11382;48.086;11.632;2023-02-01T05:23:46;3.60;99.90
22430;DHT22;11382;48.086;11.632;2023-02-01T05:26:32;3.60;99.90
22430;DHT22;11382;48.086;11.632;2023-02-01T05:29:00;3.60;99.90
22430;DHT22;11382;48.086;11.632;2023-02-01T05:31:29;3.60;99.90
22430;DHT22;11382;48.086;11.632;2023-02-01T05:33:57;3.50;99.90
22430;DHT22;11382;48.086;11.632;2023-02-01T05:36:25;3.50;99.90
22430;DHT22;11382;48.086;11.632;2023-02-01T05:38:53;3.60;99.90
22430;DHT22;11382;48.086;11.632;2023-02-01T05:41:21;3.60;99.90
22430;DHT22;11382;48.086;11.632;2023-02-01T05:43:49;3.60;99.90
22430;DHT22;11382;48.086;11.632;2023-02-01T05:46:17;3.70;99.90
22430;DHT22;11382;48.086;11.632;2023-02-01T05:48:46;3.60;99.90
22430;DHT22;11382;48.086;11.632;2023-02-01T05:51:14;3.60;99.90
22430;DHT22;11382;48.086;11.632;2023-02-01T05:53:42;3.70;99.90
22430;DHT22;11382;48.086;11.632;2023-02-01T05:56:10;3.60;99.90
22430;DHT22;11382;48.086;11.632;2023-02-01T05:58:38;3.60;99.90
22430;DHT22;11382;48.086;11.632;2023-02-01T06:01:06;3.60;99.90
22430;DHT22;11382;48.086;11.632;2023-02-01T06:03:34;3.70;99.90
22430;DHT22;11382;48.086;11.632;2023-02-01T06:06:03;3.70;99.90
22430;DHT22;11382;48.086;11.632;2023-02-01T06:08:31;3.70;99.90
22430;DHT22;11382;48.086;11.632;2023-02-01T06:10:59;3.60;99.90
22430;DHT22;11382;48.086;11.632;2023-02-01T06:13:28;3.60;99.90
22430;DHT22;11382;48.086;11.632;2023-02-01T06:15:58;3.60;99.90
22430;DHT22;11382;48.086;11.632;2023-02-01T06:18:26;3.70;99.90
22430;DHT22;11382;48.086;11.632;2023-02-01T06:20:57;3.60;99.90
22430;DHT22;11382;48.086;11.632;2023-02-01T06:23:28;3.60;99.90
22430;DHT22;11382;48.086;11.632;2023-02-01T06:25:59;3.60;99.90
22430;DHT22;11382;48.086;11.632;2023-02-01T06:28:28;3.60;99.90
22430;DHT22;11382;48.086;11.632;2023-02-01T06:30:56;3.60;99.90
22430;DHT22;11382;48.086;11.632;2023-02-01T06:33:25;3.60;99.90
22430;DHT22;11382;48.086;11.632;2023-02-01T06:35:57;3.60;99.90
22430;DHT22;11382;48.086;11.632;2023-02-01T06:38:27;3.60;99.90
22430;DHT22;11382;48.086;11.632;2023-02-01T06:40:56;3.60;99.90
22430;DHT22;11382;48.086;11.632;2023-02-01T06:43:26;3.60;99.90
22430;DHT22;11382;48.086;11.632;2023-02-01T06:46:00;3.60;99.90
22430;DHT22;11382;48.086;11.632;2023-02-01T06:48:28;3.60;99.90
22430;DHT22;11382;48.086;11.632;2023-02-01T06:50:56;3.60;99.90
22430;DHT22;11382;48.086;11.632;2023-02-01T06:53:24;3.60;99.90
22430;DHT22;11382;48.086;11.632;2023-02-01T06:55:55;3.70;99.90
22430;DHT22;11382;48.086;11.632;2023-02-01T06:58:24;3.60;99.90
22430;DHT22;11382;48.086;11.632;2023-02-01T07:00:52;3.70;99.90
22430;DHT22;11382;48.086;11.632;2023-02-01T07:03:20;3.70;99.90
22430;DHT22;11382;48.086;11.632;2023-02-01T07:05:48;3.80;99.90
22430;DHT22;11382;48.086;11.632;2023-02-01T07:08:16;3.70;99.90
22430;DHT22;11382;48.086;11.632;2023-02-01T07:10:44;3.70;99.90
22430;DHT22;11382;48.086;11.632;2023-02-01T07:13:13;3.80;99.90
22430;DHT22;11382;48.086;11.632;2023-02-01T07:15:41;3.80;99.90
22430;DHT22;11382;48.086;11.632;2023-02-01T07:18:09;3.70;99.90
22430;DHT22;11382;48.086;11.632;2023-02-01T07:20:37;3.90;99.90
22430;DHT22;11382;48.086;11.632;2023-02-01T07:23:05;3.90;99.90
22430;DHT22;11382;48.086;11.632;2023-02-01T07:25:34;3.90;99.90
22430;DHT22;11382;48.086;11.632;2023-02-01T07:28:02;3.90;99.90
22430;DHT22;11382;48.086;11.632;2023-02-01T07:30:31;3.90;99.90
22430;DHT22;11382;48.086;11.632;2023-02-01T07:32:59;3.90;99.90
22430;DHT22;11382;48.086;11.632;2023-02-01T07:35:28;3.80;99.90
22430;DHT22;11382;48.086;11.632;2023-02-01T07:37:57;3.90;99.90
22430;DHT22;11382;48.086;11.632;2023-02-01T07:40:25;3.80;99.90
22430;DHT22;11382;48.086;11.632;2023-02-01T07:42:55;3.90;99.90
22430;DHT22;11382;48.086;11.632;2023-02-01T07:45:23;4.00;99.90
22430;DHT22;11382;48.086;11.632;2023-02-01T07:47:53;4.00;99.90
22430;DHT22;11382;48.086;11.632;2023-02-01T07:50:21;4.00;99.90
22430;DHT22;11382;48.086;11.632;2023-02-01T07:52:49;3.90;99.90
22430;DHT22;11382;48.086;11.632;2023-02-01T07:55:17;4.00;99.90
22430;DHT22;11382;48.086;11.632;2023-02-01T07:57:45;4.00;99.90
22430;DHT22;11382;48.086;11.632;2023-02-01T08:00:14;4.10;99.90
22430;DHT22;11382;48.086;11.632;2023-02-01T08:03:03;4.20;99.90
22430;DHT22;11382;48.086;11.632;2023-02-01T08:05:31;4.20;99.90
22430;DHT22;11382;48.086;11.632;2023-02-01T08:07:59;4.20;99.90
22430;DHT22;11382;48.086;11.632;2023-02-01T08:10:27;4.20;99.90
22430;DHT22;11382;48.086;11.632;2023-02-01T08:12:58;4.20;99.90
22430;DHT22;11382;48.086;11.632;2023-02-01T08:15:26;4.30;99.90
22430;DHT22;11382;48.086;11.632;2023-02-01T08:17:55;4.30;99.90
22430;DHT22;11382;48.086;11.632;2023-02-01T08:20:25;4.40;99.90
22430;DHT22;11382;48.086;11.632;2023-02-01T08:22:54;4.50;99.90
22430;DHT22;11382;48.086;11.632;2023-02-01T08:25:22;4.50;99.90
22430;DHT22;11382;48.086;11.632;2023-02-01T08:27:51;4.60;99.90
22430;DHT22;11382;48.086;11.632;2023-02-01T08:30:21;4.60;99.90
22430;DHT22;11382;48.086;11.632;2023-02-01T08:32:49;4.60;99.90
22430;DHT22;11382;48.086;11.632;2023-02-01T08:35:17;4.60;99.90
22430;DHT22;11382;48.086;11.632;2023-02-01T08:37:49;4.60;99.90
22430;DHT22;11382;48.086;11.632;2023-02-01T08:40:17;4.60;99.90
22430;DHT22;11382;48.086;11.632;2023-02-01T08:42:45;4.70;99.90
22430;DHT22;11382;48.086;11.632;2023-02-01T08:45:22;4.70;99.90
22430;DHT22;11382;48.086;11.632;2023-02-01T08:47:51;4.80;99.90
22430;DHT22;11382;48.086;11.632;2023-02-01T08:50:20;4.90;99.90
22430;DHT22;11382;48.086;11.632;2023-02-01T08:52:50;4.90;99.90
22430;DHT22;11382;48.086;11.632;2023-02-01T08:55:18;5.00;99.90
22430;DHT22;11382;48.086;11.632;2023-02-01T08:57:47;5.10;99.90
22430;DHT22;11382;48.086;11.632;2023-02-01T09:00:17;5.20;99.90
22430;DHT22;11382;48.086;11.632;2023-02-01T09:02:45;5.40;99.90
22430;DHT22;11382;48.086;11.632;2023-02-01T09:05:13;5.40;99.90
22430;DHT22;11382;48.086;11.632;2023-02-01T09:07:43;5.30;99.90
22430;DHT22;11382;48.086;11.632;2023-02-01T09:10:12;5.50;99.90
22430;DHT22;11382;48.086;11.632;2023-02-01T09:12:44;5.60;99.90
22430;DHT22;11382;48.086;11.632;2023-02-01T09:15:12;5.60;99.90
22430;DHT22;11382;48.086;11.632;2023-02-01T09:17:40;5.50;99.90
22430;DHT22;11382;48.086;11.632;2023-02-01T09:20:10;5.70;99.90
22430;DHT22;11382;48.086;11.632;2023-02-01T09:22:39;5.80;99.90
22430;DHT22;11382;48.086;11.632;2023-02-01T09:25:08;5.80;99.90
22430;DHT22;11382;48.086;11.632;2023-02-01T09:27:37;5.80;99.90
22430;DHT22;11382;48.086;11.632;2023-02-01T09:30:06;5.90;99.90
22430;DHT22;11382;48.086;11.632;2023-02-01T09:32:35;6.00;99.90
22430;DHT22;11382;48.086;11.632;2023-02-01T09:35:03;6.20;99.90
22430;DHT22;11382;48.086;11.632;2023-02-01T09:37:31;6.30;99.90
22430;DHT22;11382;48.086;11.632;2023-02-01T09:39:59;6.40;99.90
22430;DHT22;11382;48.086;11.632;2023-02-01T09:42:48;6.60;99.90
22430;DHT22;11382;48.086;11.632;2023-02-01T09:45:24;6.50;99.90
22430;DHT22;11382;48.086;11.632;2023-02-01T09:47:57;6.40;99.90
22430;DHT22;11382;48.086;11.632;2023-02-01T09:50:32;6.60;99.90
22430;DHT22;11382;48.086;11.632;2023-02-01T09:53:04;6.60;99.90
22430;DHT22;11382;48.086;11.632;2023-02-01T09:55:38;6.60;99.90
22430;DHT22;11382;48.086;11.632;2023-02-01T09:58:13;6.50;99.90
22430;DHT22;11382;48.086;11.632;2023-02-01T10:00:50;6.40;99.90
22430;DHT22;11382;48.086;11.632;2023-02-01T10:03:19;6.60;99.90
22430;DHT22;11382;48.086;11.632;2023-02-01T10:06:12;6.60;99.90
22430;DHT22;11382;48.086;11.632;2023-02-01T10:09:01;6.40;99.90
22430;DHT22;11382;48.086;11.632;2023-02-01T10:11:40;6.40;99.90
22430;DHT22;11382;48.086;11.632;2023-02-01T10:17:20;6.30;99.90
22430;DHT22;11382;48.086;11.632;2023-02-01T10:19:56;6.30;99.90
22430;DHT22;11382;48.086;11.632;2023-02-01T10:22:37;6.40;99.90
22430;DHT22;11382;48.086;11.632;2023-02-01T10:25:31;6.30;99.90
22430;DHT22;11382;48.086;11.632;2023-02-01T10:28:03;6.30;99.90
22430;DHT22;11382;48.086;11.632;2023-02-01T10:30:38;6.40;99.90
22430;DHT22;11382;48.086;11.632;2023-02-01T10:33:15;6.30;99.90
22430;DHT22;11382;48.086;11.632;2023-02-01T10:35:44;6.30;99.90
22430;DHT22;11382;48.086;11.632;2023-02-01T10:38:20;6.30;99.90
22430;DHT22;11382;48.086;11.632;2023-02-01T10:40:53;6.40;99.90
22430;DHT22;11382;48.086;11.632;2023-02-01T10:43:23;6.20;99.90
22430;DHT22;11382;48.086;11.632;2023-02-01T10:45:52;6.20;99.90
22430;DHT22;11382;48.086;11.632;2023-02-01T10:48:20;6.40;99.90
22430;DHT22;11382;48.086;11.632;2023-02-01T10:50:53;6.50;99.90
22430;DHT22;11382;48.086;11.632;2023-02-01T10:53:28;6.40;99.90
22430;DHT22;11382;48.086;11.632;2023-02-01T10:55:57;6.30;99.90
22430;DHT22;11382;48.086;11.632;2023-02-01T10:58:27;6.50;99.90
22430;DHT22;11382;48.086;11.632;2023-02-01T11:00:58;6.40;99.90
22430;DHT22;11382;48.086;11.632;2023-02-01T11:03:34;6.30;99.90
22430;DHT22;11382;48.086;11.632;2023-02-01T11:06:04;6.40;99.90
22430;DHT22;11382;48.086;11.632;2023-02-01T11:08:42;6.50;99.90
22430;DHT22;11382;48.086;11.632;2023-02-01T11:11:11;6.30;99.90
22430;DHT22;11382;48.086;11.632;2023-02-01T11:13:40;6.10;99.90
22430;DHT22;11382;48.086;11.632;2023-02-01T11:16:13;5.80;99.90
22430;DHT22;11382;48.086;11.632;2023-02-01T11:18:41;5.70;99.90
22430;DHT22;11382;48.086;11.632;2023-02-01T11:21:11;5.50;99.90
22430;DHT22;11382;48.086;11.632;2023-02-01T11:23:43;5.80;99.90
22430;DHT22;11382;48.086;11.632;2023-02-01T11:26:14;6.00;99.90
22430;DHT22;11382;48.086;11.632;2023-02-01T11:28:51;6.20;99.90
22430;DHT22;11382;48.086;11.632;2023-02-01T11:31:22;6.30;99.90
22430;DHT22;11382;48.086;11.632;2023-02-01T11:33:53;6.20;99.90
22430;DHT22;11382;48.086;11.632;2023-02-01T11:36:24;6.20;99.90
22430;DHT22;11382;48.086;11.632;2023-02-01T11:39:08;6.10;99.90
22430;DHT22;11382;48.086;11.632;2023-02-01T11:41:42;5.90;99.90
22430;DHT22;11382;48.086;11.632;2023-02-01T11:44:20;5.80;99.90
22430;DHT22;11382;48.086;11.632;2023-02-01T11:46:51;5.80;99.90
22430;DHT22;11382;48.086;11.632;2023-02-01T11:49:42;5.80;99.90
22430;DHT22;11382;48.086;11.632;2023-02-01T11:52:14;5.90;99.90
22430;DHT22;11382;48.086;11.632;2023-02-01T11:54:57;5.90;99.90
22430;DHT22;11382;48.086;11.632;2023-02-01T11:57:42;5.90;99.90
22430;DHT22;11382;48.086;11.632;2023-02-01T12:00:32;5.60;99.90
22430;DHT22;11382;48.086;11.632;2023-02-01T12:03:26;5.50;99.90
22430;DHT22;11382;48.086;11.632;2023-02-01T12:06:04;5.50;99.90
22430;DHT22;11382;48.086;11.632;2023-02-01T12:09:00;5.50;99.90
22430;DHT22;11382;48.086;11.632;2023-02-01T12:11:40;5.50;99.90
22430;DHT22;11382;48.086;11.632;2023-02-01T12:14:24;5.40;99.90
22430;DHT22;11382;48.086;11.632;2023-02-01T12:17:10;5.40;99.90
22430;DHT22;11382;48.086;11.632;2023-02-01T12:19:59;5.60;99.90
22430;DHT22;11382;48.086;11.632;2023-02-01T12:22:38;5.60;99.90
22430;DHT22;11382;48.086;11.632;2023-02-01T12:25:21;5.80;99.90
22430;DHT22;11382;48.086;11.632;2023-02-01T12:28:04;5.70;99.90
22430;DHT22;11382;48.086;11.632;2023-02-01T12:31:00;5.70;99.90
22430;DHT22;11382;48.086;11.632;2023-02-01T12:33:40;5.50;99.90
22430;DHT22;11382;48.086;11.632;2023-02-01T12:36:18;5.50;99.90
22430;DHT22;11382;48.086;11.632;2023-02-01T12:38:53;5.50;99.90
22430;DHT22;11382;48.086;11.632;2023-02-01T12:41:45;5.30;99.90
22430;DHT22;11382;48.086;11.632;2023-02-01T12:44:24;5.20;99.90
22430;DHT22;11382;48.086;11.632;2023-02-01T12:46:57;5.20;99.90
22430;DHT22;11382;48.086;11.632;2023-02-01T12:49:33;5.10;99.90
22430;DHT22;11382;48.086;11.632;2023-02-01T12:52:10;5.10;99.90
22430;DHT22;11382;48.086;11.632;2023-02-01T12:54:42;5.10;99.90
22430;DHT22;11382;48.086;11.632;2023-02-01T12:57:15;5.10;99.90
22430;DHT22;11382;48.086;11.632;2023-02-01T12:59:49;5.10;99.90
22430;DHT22;11382;48.086;11.632;2023-02-01T13:02:28;5.20;99.90
22430;DHT22;11382;48.086;11.632;2023-02-01T13:05:04;5.20;99.90
22430;DHT22;11382;48.086;11.632;2023-02-01T13:07:44;5.30;99.90
22430;DHT22;11382;48.086;11.632;2023-02-01T13:10:16;5.30;99.90
22430;DHT22;11382;48.086;11.632;2023-02-01T13:12:51;5.40;99.90
22430;DHT22;11382;48.086;11.632;2023-02-01T13:15:24;5.30;99.90
22430;DHT22;11382;48.086;11.632;2023-02-01T13:17:57;5.40;99.90
22430;DHT22;11382;48.086;11.632;2023-02-01T13:20:31;5.30;99.90
22430;DHT22;11382;48.086;11.632;2023-02-01T13:23:04;5.30;99.90
22430;DHT22;11382;48.086;11.632;2023-02-01T13:25:43;5.50;99.90
22430;DHT22;11382;48.086;11.632;2023-02-01T13:28:16;5.60;99.90
22430;DHT22;11382;48.086;11.632;2023-02-01T13:30:59;5.60;99.90
22430;DHT22;11382;48.086;11.632;2023-02-01T13:33:45;5.70;99.90
22430;DHT22;11382;48.086;11.632;2023-02-01T13:36:30;5.70;99.90
22430;DHT22;11382;48.086;11.632;2023-02-01T13:39:35;5.70;99.90
22430;DHT22;11382;48.086;11.632;2023-02-01T13:42:15;5.70;99.90
22430;DHT22;11382;48.086;11.632;2023-02-01T13:44:46;5.80;99.90
22430;DHT22;11382;48.086;11.632;2023-02-01T13:47:23;5.80;99.90
22430;DHT22;11382;48.086;11.632;2023-02-01T13:49:53;5.90;99.90
22430;DHT22;11382;48.086;11.632;2023-02-01T13:52:27;5.70;99.90
22430;DHT22;11382;48.086;11.632;2023-02-01T13:55:13;5.90;99.90
22430;DHT22;11382;48.086;11.632;2023-02-01T13:57:43;5.90;99.90
22430;DHT22;11382;48.086;11.632;2023-02-01T14:00:24;5.80;99.90
22430;DHT22;11382;48.086;11.632;2023-02-01T14:03:09;5.80;99.90
22430;DHT22;11382;48.086;11.632;2023-02-01T14:06:03;5.70;99.90
22430;DHT22;11382;48.086;11.632;2023-02-01T14:11:38;5.50;99.90
22430;DHT22;11382;48.086;11.632;2023-02-01T14:17:34;5.30;99.90
22430;DHT22;11382;48.086;11.632;2023-02-01T14:20:40;5.20;99.90
22430;DHT22;11382;48.086;11.632;2023-02-01T14:23:16;5.20;99.90
22430;DHT22;11382;48.086;11.632;2023-02-01T14:25:45;5.10;99.90
22430;DHT22;11382;48.086;11.632;2023-02-01T14:28:24;5.10;99.90
22430;DHT22;11382;48.086;11.632;2023-02-01T14:30:54;5.00;99.90
22430;DHT22;11382;48.086;11.632;2023-02-01T14:33:25;5.00;99.90
22430;DHT22;11382;48.086;11.632;2023-02-01T14:36:06;5.00;99.90
22430;DHT22;11382;48.086;11.632;2023-02-01T14:38:36;5.00;99.90
22430;DHT22;11382;48.086;11.632;2023-02-01T14:41:24;5.00;99.90
22430;DHT22;11382;48.086;11.632;2023-02-01T14:47:33;5.00;99.90
22430;DHT22;11382;48.086;11.632;2023-02-01T14:53:17;4.80;99.90
22430;DHT22;11382;48.086;11.632;2023-02-01T14:55:49;4.90;99.90
22430;DHT22;11382;48.086;11.632;2023-02-01T14:58:30;4.90;99.90
22430;DHT22;11382;48.086;11.632;2023-02-01T15:01:02;4.90;99.90
22430;DHT22;11382;48.086;11.632;2023-02-01T15:03:43;4.90;99.90
22430;DHT22;11382;48.086;11.632;2023-02-01T15:06:31;4.90;99.90
22430;DHT22;11382;48.086;11.632;2023-02-01T15:09:02;4.80;99.90
22430;DHT22;11382;48.086;11.632;2023-02-01T15:11:30;4.80;99.90
22430;DHT22;11382;48.086;11.632;2023-02-01T15:13:58;4.80;99.90
22430;DHT22;11382;48.086;11.632;2023-02-01T15:16:27;4.70;99.90
22430;DHT22;11382;48.086;11.632;2023-02-01T15:19:14;4.70;99.90
22430;DHT22;11382;48.086;11.632;2023-02-01T15:21:44;4.60;99.90
22430;DHT22;11382;48.086;11.632;2023-02-01T15:24:14;4.50;99.90
22430;DHT22;11382;48.086;11.632;2023-02-01T15:26:42;4.40;99.90
22430;DHT22;11382;48.086;11.632;2023-02-01T15:29:12;4.40;99.90
22430;DHT22;11382;48.086;11.632;2023-02-01T15:31:42;4.30;99.90
22430;DHT22;11382;48.086;11.632;2023-02-01T15:34:13;4.20;99.90
22430;DHT22;11382;48.086;11.632;2023-02-01T15:36:41;4.10;99.90
22430;DHT22;11382;48.086;11.632;2023-02-01T15:39:28;4.00;99.90
22430;DHT22;11382;48.086;11.632;2023-02-01T15:41:59;4.00;99.90
22430;DHT22;11382;48.086;11.632;2023-02-01T15:44:31;3.90;99.90
22430;DHT22;11382;48.086;11.632;2023-02-01T15:47:06;3.70;99.90
22430;DHT22;11382;48.086;11.632;2023-02-01T15:49:40;3.60;99.90
22430;DHT22;11382;48.086;11.632;2023-02-01T15:52:12;3.60;99.90
22430;DHT22;11382;48.086;11.632;2023-02-01T15:54:48;3.50;99.90
22430;DHT22;11382;48.086;11.632;2023-02-01T15:57:20;3.50;99.90
22430;DHT22;11382;48.086;11.632;2023-02-01T15:59:53;3.50;99.90
22430;DHT22;11382;48.086;11.632;2023-02-01T16:02:26;3.60;99.90
22430;DHT22;11382;48.086;11.632;2023-02-01T16:04:56;3.60;99.90
22430;DHT22;11382;48.086;11.632;2023-02-01T16:07:27;3.60;99.90
22430;DHT22;11382;48.086;11.632;2023-02-01T16:10:02;3.60;99.90
22430;DHT22;11382;48.086;11.632;2023-02-01T16:16:04;3.60;99.90
22430;DHT22;11382;48.086;11.632;2023-02-01T16:18:35;3.70;99.90
22430;DHT22;11382;48.086;11.632;2023-02-01T16:21:05;3.60;99.90
22430;DHT22;11382;48.086;11.632;2023-02-01T16:23:34;3.70;99.90
22430;DHT22;11382;48.086;11.632;2023-02-01T16:26:04;3.70;99.90
22430;DHT22;11382;48.086;11.632;2023-02-01T16:28:32;3.70;99.90
22430;DHT22;11382;48.086;11.632;2023-02-01T16:31:01;3.70;99.90